Time;durP1;ratioP1;P1;durP2;ratioP2;P2;SDS_P1;SDS_P2;PMS_P1;PMS_P2;Temp;Humidity;BMP_temperature;BMP_pressure;BME280_temperature;BME280_humidity;BME280_pressure;Samples;Min_cycle;Max_cycle;Signal;HPM_P1;HPM_P2
2021/04/14 00:01:50;;;;;;;9.98;7.82;;;103.20;2227.20;;;;;;5071784;28;20100;-66
2021/04/14 00:04:16;;;;;;;9.43;6.40;;;103.20;2227.20;;;;;;5076736;28;20035;-67
2021/04/14 00:06:43;;;;;;;6.63;4.78;;;103.20;2227.20;;;;;;5071694;28;20028;-65
2021/04/14 00:09:09;;;;;;;7.10;4.75;;;103.20;2227.20;;;;;;5071319;28;20107;-66
2021/04/14 00:11:36;;;;;;;6.80;4.30;;;103.20;2227.20;;;;;;5071362;28;20039;-66
2021/04/14 00:14:03;;;;;;;6.45;4.80;;;103.10;2227.20;;;;;;5071562;28;20028;-66
2021/04/14 00:16:29;;;;;;;7.22;5.38;;;103.10;2227.20;;;;;;5071484;28;20078;-70
2021/04/14 00:18:55;;;;;;;6.93;4.97;;;103.10;2227.20;;;;;;5070856;28;20024;-66
2021/04/14 00:21:23;;;;;;;8.18;5.32;;;103.10;2227.20;;;;;;5071437;28;20026;-66
2021/04/14 00:23:50;;;;;;;7.38;5.30;;;103.10;2227.20;;;;;;5071657;28;20037;-66
2021/04/14 00:26:16;;;;;;;8.00;5.43;;;103.10;2227.20;;;;;;5074502;28;20025;-66
2021/04/14 00:28:43;;;;;;;7.13;5.20;;;103.10;2227.20;;;;;;5071027;28;20028;-66
2021/04/14 00:31:10;;;;;;;7.72;5.20;;;103.10;2227.20;;;;;;5071493;28;20475;-67
2021/04/14 00:33:36;;;;;;;6.15;4.65;;;103.10;2227.20;;;;;;5071342;28;20028;-67
2021/04/14 00:36:03;;;;;;;7.50;5.38;;;103.10;2227.20;;;;;;5071442;28;20030;-66
2021/04/14 00:38:28;;;;;;;6.95;4.88;;;103.10;2227.20;;;;;;5070817;28;20054;-66
2021/04/14 00:41:01;;;;;;;7.05;4.60;;;103.10;2227.20;;;;;;5070840;28;20648;-66
2021/04/14 00:43:32;;;;;;;7.07;4.82;;;103.10;2227.20;;;;;;5071266;28;20020;-67
2021/04/14 00:45:58;;;;;;;6.43;4.50;;;103.10;2227.20;;;;;;5071232;28;20024;-68
2021/04/14 00:48:24;;;;;;;6.53;4.10;;;103.10;2227.20;;;;;;5071158;28;20013;-66
2021/04/14 00:50:51;;;;;;;5.82;4.10;;;103.10;2227.20;;;;;;5070698;28;20048;-67
2021/04/14 00:53:17;;;;;;;7.97;4.78;;;103.10;2227.20;;;;;;5070933;28;20016;-67
2021/04/14 00:55:44;;;;;;;6.15;4.13;;;103.00;2227.20;;;;;;5070841;28;20493;-66
2021/04/14 00:58:10;;;;;;;5.60;3.45;;;103.00;2227.20;;;;;;5071284;28;20112;-67
2021/04/14 01:00:43;;;;;;;5.00;3.50;;;102.90;2227.20;;;;;;5070697;28;20035;-66
2021/04/14 01:03:41;;;;;;;5.97;3.50;;;103.00;2227.20;;;;;;5070868;28;20021;-66
2021/04/14 01:06:20;;;;;;;4.97;3.33;;;102.90;2227.20;;;;;;5031130;28;20024;-65
2021/04/14 01:08:46;;;;;;;5.75;3.60;;;102.80;2227.20;;;;;;5070809;28;20389;-65
2021/04/14 01:11:15;;;;;;;5.72;3.45;;;102.80;2227.20;;;;;;5070615;28;20024;-67
2021/04/14 01:13:41;;;;;;;5.45;3.45;;;102.80;2227.20;;;;;;5070970;28;20445;-67
2021/04/14 01:16:09;;;;;;;4.70;3.45;;;102.80;2227.20;;;;;;5070976;28;20078;-65
2021/04/14 01:18:37;;;;;;;5.07;3.33;;;102.80;2227.20;;;;;;5070260;28;20020;-67
2021/04/14 01:21:09;;;;;;;6.13;4.20;;;102.80;2227.20;;;;;;5070736;28;20021;-70
2021/04/14 01:23:35;;;;;;;5.30;3.80;;;102.90;2227.20;;;;;;5070433;28;20016;-66
2021/04/14 01:26:01;;;;;;;4.63;3.33;;;102.90;2227.20;;;;;;5073785;28;20028;-69
2021/04/14 01:28:36;;;;;;;5.97;3.92;;;102.90;2227.20;;;;;;5070336;28;20032;-65
2021/04/14 01:31:05;;;;;;;5.57;3.83;;;102.80;2227.20;;;;;;5070802;28;20028;-66
2021/04/14 01:33:33;;;;;;;5.95;3.97;;;102.80;2227.20;;;;;;5070373;28;20403;-69
2021/04/14 01:36:01;;;;;;;6.65;4.20;;;102.80;2227.20;;;;;;5070722;28;20033;-66
2021/04/14 01:38:27;;;;;;;5.45;3.70;;;102.80;2227.20;;;;;;5070344;28;20020;-65
2021/04/14 01:40:53;;;;;;;5.00;3.70;;;102.90;2227.20;;;;;;5070191;28;20033;-67
2021/04/14 01:43:19;;;;;;;4.95;3.85;;;102.90;2227.20;;;;;;5070555;28;20154;-67
2021/04/14 01:45:47;;;;;;;4.68;3.38;;;102.80;2227.20;;;;;;5070441;28;20491;-66
2021/04/14 01:48:14;;;;;;;5.35;3.83;;;102.80;2227.20;;;;;;5070389;28;20034;-65
2021/04/14 01:50:40;;;;;;;5.10;3.72;;;102.80;2227.20;;;;;;5069943;28;20044;-64
2021/04/14 01:53:08;;;;;;;6.43;3.92;;;102.80;2227.20;;;;;;5070665;28;20021;-66
2021/04/14 01:55:35;;;;;;;5.60;4.20;;;102.70;2227.20;;;;;;5068932;28;20020;-66
2021/04/14 01:58:02;;;;;;;6.53;3.83;;;102.70;2227.20;;;;;;5070495;28;20476;-67
2021/04/14 02:00:40;;;;;;;5.15;3.60;;;102.80;2227.20;;;;;;5070188;28;20029;-66
2021/04/14 02:03:06;;;;;;;6.25;4.22;;;102.80;2227.20;;;;;;5057887;28;20025;-66
2021/04/14 02:05:33;;;;;;;5.78;4.18;;;102.80;2227.20;;;;;;5075512;28;20032;-66
2021/04/14 02:08:00;;;;;;;6.03;3.90;;;102.80;2227.20;;;;;;5061820;28;20032;-66
2021/04/14 02:10:30;;;;;;;5.97;4.28;;;102.80;2227.20;;;;;;5070020;28;20104;-67
2021/04/14 02:12:58;;;;;;;5.75;3.88;;;102.80;2227.20;;;;;;5070387;28;20358;-67
2021/04/14 02:15:27;;;;;;;7.00;4.13;;;102.80;2227.20;;;;;;5072186;28;20020;-67
2021/04/14 02:17:54;;;;;;;6.75;4.28;;;102.90;2227.20;;;;;;5073441;28;20017;-67
2021/04/14 02:20:20;;;;;;;7.22;4.30;;;102.90;2227.20;;;;;;5073415;28;20013;-66
2021/04/14 02:22:47;;;;;;;5.55;3.78;;;102.90;2227.20;;;;;;5073559;28;20520;-67
2021/04/14 02:25:14;;;;;;;5.95;3.90;;;102.90;2227.20;;;;;;5080087;28;20016;-68
2021/04/14 02:27:40;;;;;;;4.70;3.47;;;102.90;2227.20;;;;;;5079002;28;20070;-66
2021/04/14 02:30:28;;;;;;;5.40;3.70;;;102.90;2227.20;;;;;;5073759;28;20075;-65
2021/04/14 02:32:55;;;;;;;5.57;3.92;;;102.90;2227.20;;;;;;5073061;28;20044;-67
2021/04/14 02:35:23;;;;;;;5.47;3.72;;;102.90;2227.20;;;;;;5073680;28;20121;-66
2021/04/14 02:37:49;;;;;;;5.25;3.83;;;102.90;2227.20;;;;;;5073291;28;20555;-66
2021/04/14 02:40:16;;;;;;;5.63;3.85;;;102.90;2227.20;;;;;;5073149;28;20044;-65
2021/04/14 02:42:42;;;;;;;5.80;4.10;;;102.90;2227.20;;;;;;5073181;28;20451;-65
2021/04/14 02:45:10;;;;;;;5.32;3.88;;;102.90;2227.20;;;;;;5073168;28;20024;-66
2021/04/14 02:47:36;;;;;;;5.97;4.00;;;103.00;2227.20;;;;;;5073493;28;20316;-66
2021/04/14 02:50:05;;;;;;;5.75;4.13;;;103.00;2227.20;;;;;;5072790;28;20072;-65
2021/04/14 02:52:30;;;;;;;6.05;4.13;;;103.10;2227.20;;;;;;5073231;28;20097;-67
2021/04/14 02:54:56;;;;;;;5.68;4.20;;;103.10;2227.20;;;;;;5072851;28;20132;-65
2021/04/14 02:57:22;;;;;;;5.78;4.22;;;103.20;2227.20;;;;;;5073150;28;20114;-65
2021/04/14 02:59:48;;;;;;;5.38;4.00;;;103.20;2227.20;;;;;;5072695;28;20023;-65
2021/04/14 03:02:14;;;;;;;5.20;4.07;;;103.30;2227.20;;;;;;5072702;28;20024;-66
2021/04/14 03:04:39;;;;;;;5.50;3.80;;;103.30;2227.20;;;;;;5073816;28;20020;-65
2021/04/14 03:07:05;;;;;;;7.07;4.20;;;103.30;2227.20;;;;;;5073138;28;20480;-67
2021/04/14 03:09:31;;;;;;;5.47;3.95;;;103.30;2227.20;;;;;;5072464;28;20464;-66
2021/04/14 03:11:56;;;;;;;5.53;3.95;;;103.20;2227.20;;;;;;5072795;28;20017;-65
2021/04/14 03:14:22;;;;;;;5.03;3.80;;;103.30;2227.20;;;;;;5072748;28;20115;-65
2021/04/14 03:16:48;;;;;;;5.53;3.90;;;103.20;2227.20;;;;;;5072466;28;20103;-66
2021/04/14 03:19:14;;;;;;;5.80;3.58;;;103.20;2227.20;;;;;;5072421;28;20078;-66
2021/04/14 03:21:39;;;;;;;5.55;3.70;;;103.20;2227.20;;;;;;5072389;28;20044;-65
2021/04/14 03:24:06;;;;;;;5.50;3.95;;;103.20;2227.20;;;;;;5072529;28;20031;-65
2021/04/14 03:26:31;;;;;;;5.28;3.70;;;103.30;2227.20;;;;;;5082325;28;20507;-65
2021/04/14 03:28:57;;;;;;;6.43;4.10;;;103.30;2227.20;;;;;;5072439;28;20013;-66
2021/04/14 03:31:26;;;;;;;5.22;3.72;;;103.30;2227.20;;;;;;5072184;28;20024;-65
2021/04/14 03:33:53;;;;;;;5.50;4.07;;;103.30;2227.20;;;;;;5071263;28;20422;-65
2021/04/14 03:36:19;;;;;;;5.30;3.83;;;128.00;2252.80;;;;;;5072452;28;20055;-66
2021/04/14 03:38:45;;;;;;;6.18;4.15;;;128.00;2252.80;;;;;;5071987;28;20036;-67
2021/04/14 03:41:11;;;;;;;5.10;3.75;;;128.10;2252.80;;;;;;5071777;28;20029;-65
2021/04/14 03:43:37;;;;;;;5.45;4.10;;;128.10;2252.80;;;;;;5072253;28;20069;-66
2021/04/14 03:46:04;;;;;;;5.07;3.88;;;128.10;2252.80;;;;;;5071914;28;20381;-65
2021/04/14 03:48:29;;;;;;;5.45;4.03;;;128.20;2252.80;;;;;;5072131;28;20032;-65
2021/04/14 03:50:55;;;;;;;6.25;4.40;;;128.20;2252.80;;;;;;5071737;28;20575;-66
2021/04/14 03:53:25;;;;;;;5.53;3.97;;;128.20;2252.80;;;;;;5071927;28;20028;-66
2021/04/14 03:55:57;;;;;;;5.78;4.40;;;128.30;2252.80;;;;;;5071742;28;20453;-66
2021/04/14 03:58:24;;;;;;;4.85;3.53;;;128.30;2252.80;;;;;;5071688;28;20163;-65
2021/04/14 04:00:52;;;;;;;4.68;3.45;;;128.20;2252.80;;;;;;5071488;28;20392;-65
2021/04/14 04:03:19;;;;;;;5.30;3.90;;;128.20;2252.80;;;;;;5072250;28;20029;-66
2021/04/14 04:05:46;;;;;;;6.47;4.38;;;128.30;2252.80;;;;;;5083216;28;20028;-65
2021/04/14 04:08:12;;;;;;;6.13;4.78;;;128.30;2252.80;;;;;;5071701;28;20836;-65
2021/04/14 04:10:38;;;;;;;5.50;4.55;;;128.30;2252.80;;;;;;5071163;28;20481;-65
2021/04/14 04:13:04;;;;;;;9.63;5.30;;;128.40;2252.80;;;;;;5071744;28;20032;-66
2021/04/14 04:15:30;;;;;;;7.97;5.18;;;128.40;2252.80;;;;;;5071211;28;20415;-66
2021/04/14 04:17:56;;;;;;;28.15;14.60;;;128.40;2252.80;;;;;;5071545;28;20028;-66
2021/04/14 04:20:22;;;;;;;18.23;13.85;;;128.40;2252.80;;;;;;5071132;28;20025;-65
2021/04/14 04:22:48;;;;;;;22.70;16.30;;;128.40;2252.80;;;;;;5071325;28;20024;-64
2021/04/14 04:25:14;;;;;;;12.13;9.75;;;128.30;2252.80;;;;;;5076637;28;20016;-66
2021/04/14 04:27:40;;;;;;;7.10;5.10;;;128.30;2252.80;;;;;;5068535;28;20017;-65
2021/04/14 04:30:07;;;;;;;7.07;5.10;;;128.30;2252.80;;;;;;5071192;28;20045;-65
2021/04/14 04:32:34;;;;;;;8.20;5.45;;;128.40;2252.80;;;;;;5070981;28;20057;-66
2021/04/14 04:34:59;;;;;;;6.90;5.55;;;128.40;2252.80;;;;;;5071351;28;20021;-66
2021/04/14 04:37:25;;;;;;;12.13;9.70;;;128.40;2252.80;;;;;;5070864;28;20381;-65
2021/04/14 04:39:51;;;;;;;13.60;11.32;;;128.50;2252.80;;;;;;5070710;28;20477;-67
2021/04/14 04:42:17;;;;;;;11.43;8.50;;;128.50;2252.80;;;;;;5070822;28;20035;-65
2021/04/14 04:44:43;;;;;;;8.98;7.18;;;128.60;2252.80;;;;;;5071074;28;20070;-65
2021/04/14 04:47:08;;;;;;;8.30;5.32;;;128.70;2252.80;;;;;;5071321;28;20024;-66
2021/04/14 04:49:34;;;;;;;5.13;3.92;;;128.70;2252.80;;;;;;5070182;28;20051;-65
2021/04/14 04:52:00;;;;;;;5.65;3.90;;;128.70;2252.80;;;;;;5071103;28;20020;-66
2021/04/14 04:54:26;;;;;;;4.85;3.10;;;128.80;2252.80;;;;;;5071013;28;20017;-65
2021/04/14 04:56:51;;;;;;;4.55;3.20;;;153.60;2252.80;;;;;;5071030;28;20030;-65
2021/04/14 04:59:17;;;;;;;5.97;3.97;;;128.90;2252.80;;;;;;5070723;28;20079;-65
2021/04/14 05:01:43;;;;;;;6.90;4.30;;;128.90;2252.80;;;;;;5070693;28;20020;-66
2021/04/14 05:04:12;;;;;;;4.70;3.75;;;128.90;2252.80;;;;;;5077213;28;20077;-66
2021/04/14 05:06:38;;;;;;;5.82;3.80;;;153.60;2252.80;;;;;;5071209;28;20021;-65
2021/04/14 05:09:04;;;;;;;6.88;3.38;;;153.70;2252.80;;;;;;5070717;28;20056;-65
2021/04/14 05:11:30;;;;;;;5.63;3.25;;;153.60;2252.80;;;;;;5070699;28;20029;-66
2021/04/14 05:13:57;;;;;;;11.43;6.93;;;153.60;2252.80;;;;;;5060423;28;20028;-66
2021/04/14 05:16:24;;;;;;;10.55;6.75;;;153.60;2252.80;;;;;;5070604;28;20048;-65
2021/04/14 05:18:50;;;;;;;14.25;7.15;;;128.90;2252.80;;;;;;5070699;28;20060;-66
2021/04/14 05:21:16;;;;;;;164.05;86.07;;;128.80;2252.80;;;;;;5070471;28;20056;-65
2021/04/14 05:23:42;;;;;;;42.33;34.15;;;128.70;2252.80;;;;;;5071047;28;20029;-65
2021/04/14 05:26:07;;;;;;;12.82;8.73;;;128.70;2252.80;;;;;;5080431;28;20469;-65
2021/04/14 05:28:33;;;;;;;7.30;5.10;;;128.90;2252.80;;;;;;5070253;28;20023;-65
2021/04/14 05:30:59;;;;;;;11.75;8.57;;;153.70;2252.80;;;;;;5070882;28;20052;-67
2021/04/14 05:33:25;;;;;;;16.63;14.90;;;153.80;2252.80;;;;;;5070614;28;20028;-64
2021/04/14 05:35:53;;;;;;;20.25;17.15;;;154.00;2252.80;;;;;;5070618;28;20059;-65
2021/04/14 05:38:18;;;;;;;35.22;25.42;;;154.10;2252.80;;;;;;5070646;28;20106;-66
2021/04/14 05:40:44;;;;;;;11.60;7.32;;;154.10;2252.80;;;;;;5070085;28;20021;-65
2021/04/14 05:43:22;;;;;;;19.63;8.52;;;154.20;2252.80;;;;;;5070315;28;20013;-65
2021/04/14 05:46:15;;;;;;;14.07;9.35;;;154.40;2252.80;;;;;;5070551;28;20571;-64
2021/04/14 05:48:43;;;;;;;15.32;10.45;;;154.40;2252.80;;;;;;5067600;28;20036;-65
2021/04/14 05:51:13;;;;;;;14.57;9.90;;;154.50;2252.80;;;;;;5073845;28;20095;-65
2021/04/14 05:53:40;;;;;;;49.78;33.38;;;154.50;2252.80;;;;;;5074169;28;20037;-65
2021/04/14 05:56:08;;;;;;;49.20;33.65;;;154.40;2252.80;;;;;;5074097;28;20040;-65
2021/04/14 05:58:35;;;;;;;16.67;8.55;;;154.30;2252.80;;;;;;5073514;28;20054;-64
2021/04/14 06:01:02;;;;;;;16.88;10.45;;;154.30;2252.80;;;;;;5073733;28;20028;-65
2021/04/14 06:03:28;;;;;;;28.42;19.27;;;154.30;2252.80;;;;;;5075741;28;20019;-66
2021/04/14 06:05:56;;;;;;;20.92;12.80;;;154.30;2252.80;;;;;;5077492;28;20388;-65
2021/04/14 06:08:22;;;;;;;30.08;19.75;;;154.30;2252.80;;;;;;5073671;28;20159;-65
2021/04/14 06:10:48;;;;;;;18.92;10.55;;;154.10;2252.80;;;;;;5073653;28;20032;-65
2021/04/14 06:13:14;;;;;;;15.40;9.27;;;154.30;2252.80;;;;;;5073648;28;20031;-65
2021/04/14 06:15:40;;;;;;;25.02;12.07;;;154.20;2252.80;;;;;;5073755;28;20031;-69
2021/04/14 06:18:06;;;;;;;10.93;5.30;;;154.20;2252.80;;;;;;5073868;28;20020;-66
2021/04/14 06:20:33;;;;;;;12.60;5.60;;;154.20;2252.80;;;;;;5073254;28;20029;-65
2021/04/14 06:23:01;;;;;;;19.13;8.10;;;154.30;2252.80;;;;;;5073664;28;20027;-65
2021/04/14 06:25:33;;;;;;;16.95;9.75;;;154.40;2252.80;;;;;;5082332;28;20031;-65
2021/04/14 06:30:25;;;;;;;25.35;19.08;;;154.20;2252.80;;;;;;5073691;28;20099;-66
2021/04/14 06:32:51;;;;;;;17.98;10.07;;;154.20;2252.80;;;;;;5073513;28;20120;-65
2021/04/14 06:35:18;;;;;;;10.80;6.20;;;154.30;2252.80;;;;;;5073790;28;20074;-66
2021/04/14 06:37:44;;;;;;;14.75;7.40;;;154.40;2252.80;;;;;;5073511;28;20373;-66
2021/04/14 06:43:16;;;;;;;13.02;8.23;;;179.40;2252.80;;;;;;5073357;28;20085;-65
2021/04/14 06:45:55;;;;;;;15.68;11.45;;;179.50;2252.80;;;;;;5073152;28;20043;-65
2021/04/14 06:48:40;;;;;;;7.85;4.97;;;179.70;2252.80;;;;;;5072973;28;20104;-65
2021/04/14 06:51:44;;;;;;;51.72;14.07;;;179.80;2252.80;;;;;;5073271;28;20052;-65
2021/04/14 06:54:47;;;;;;;7.68;5.20;;;180.00;2252.80;;;;;;5051054;28;20036;-66
2021/04/14 06:57:26;;;;;;;13.15;6.55;;;180.00;2252.80;;;;;;5061418;28;20031;-66
2021/04/14 06:59:57;;;;;;;16.80;12.55;;;204.90;2252.80;;;;;;5072155;28;20024;-66
2021/04/14 07:02:54;;;;;;;13.00;9.20;;;205.00;2252.80;;;;;;5062596;28;20111;-67
2021/04/14 07:05:48;;;;;;;13.45;8.30;;;205.30;2252.80;;;;;;5073257;28;20024;-65
2021/04/14 07:08:29;;;;;;;16.40;10.65;;;205.50;2252.80;;;;;;5070429;28;20036;-64
2021/04/14 07:11:00;;;;;;;7.38;5.15;;;205.60;2252.80;;;;;;5064183;28;20036;-65
2021/04/14 07:13:28;;;;;;;6.78;4.80;;;205.60;2252.80;;;;;;5068455;28;20032;-65
2021/04/14 07:16:09;;;;;;;13.23;8.77;;;205.70;2252.80;;;;;;5072341;28;20024;-64
2021/04/14 07:18:51;;;;;;;9.90;8.05;;;205.60;2252.80;;;;;;5072184;28;20026;-64
2021/04/14 07:21:28;;;;;;;12.23;8.45;;;205.40;2252.80;;;;;;5072871;28;20447;-64
2021/04/14 07:24:02;;;;;;;12.23;8.32;;;205.20;2252.80;;;;;;5072419;28;20423;-66
2021/04/14 07:26:37;;;;;;;12.07;7.55;;;205.10;2252.80;;;;;;5075528;28;20028;-69
2021/04/14 07:29:09;;;;;;;10.32;6.88;;;205.10;2252.80;;;;;;5071757;28;20028;-70
2021/04/14 07:31:39;;;;;;;9.85;6.57;;;205.10;2252.80;;;;;;5072139;28;20444;-68
2021/04/14 07:34:31;;;;;;;6.10;4.43;;;205.00;2252.80;;;;;;5072462;28;20025;-64
2021/04/14 07:37:08;;;;;;;14.18;9.32;;;205.00;2252.80;;;;;;5061388;28;20028;-63
2021/04/14 07:40:01;;;;;;;17.10;10.02;;;205.10;2252.80;;;;;;5071548;28;20366;-67
2021/04/14 07:42:52;;;;;;;6.90;5.00;;;205.00;2252.80;;;;;;5071895;28;20404;-64
2021/04/14 07:45:21;;;;;;;5.53;4.03;;;205.10;2252.80;;;;;;5053439;28;20047;-67
2021/04/14 07:47:58;;;;;;;8.85;5.32;;;205.00;2252.80;;;;;;5061318;28;20057;-64
2021/04/14 07:50:35;;;;;;;59.08;22.13;;;205.20;2252.80;;;;;;5068785;28;20056;-64
2021/04/14 07:53:01;;;;;;;16.20;8.15;;;205.30;2252.80;;;;;;5057367;28;20052;-67
2021/04/14 07:55:31;;;;;;;6.45;4.32;;;205.30;2252.80;;;;;;5053348;28;20025;-65
2021/04/14 07:58:10;;;;;;;10.85;6.93;;;205.10;2227.20;;;;;;5053489;28;20394;-64
2021/04/14 08:00:42;;;;;;;17.02;9.55;;;205.20;2252.80;;;;;;5057107;28;20076;-64
2021/04/14 08:03:17;;;;;;;9.65;6.50;;;205.30;2252.80;;;;;;5066465;28;20024;-66
2021/04/14 08:05:43;;;;;;;11.95;7.07;;;205.20;2252.80;;;;;;5069832;28;20013;-64
2021/04/14 08:08:31;;;;;;;9.68;5.63;;;205.40;2252.80;;;;;;5071090;28;20035;-65
2021/04/14 08:11:05;;;;;;;11.45;6.82;;;205.60;2252.80;;;;;;5068605;28;20024;-65
2021/04/14 08:13:38;;;;;;;15.70;10.18;;;205.60;2252.80;;;;;;5070462;28;20036;-65
2021/04/14 08:16:36;;;;;;;11.57;8.27;;;205.60;2227.20;;;;;;5069856;28;20024;-65
2021/04/14 08:19:22;;;;;;;7.65;5.25;;;205.50;2201.60;;;;;;5069356;28;20021;-64
2021/04/14 08:21:53;;;;;;;6.03;4.90;;;205.50;2252.80;;;;;;5071440;28;20093;-66
2021/04/14 08:24:40;;;;;;;4.82;3.65;;;205.40;2201.60;;;;;;5071120;28;20128;-65
2021/04/14 08:27:18;;;;;;;5.07;3.40;;;205.70;2227.20;;;;;;5059562;28;20021;-64
2021/04/14 08:29:49;;;;;;;4.45;2.55;;;205.70;2124.80;;;;;;5070441;28;20370;-65
2021/04/14 08:32:16;;;;;;;6.60;4.50;;;230.40;2124.80;;;;;;5070983;28;20071;-65
2021/04/14 08:35:01;;;;;;;12.10;6.50;;;230.50;2099.20;;;;;;5066382;28;20397;-65
2021/04/14 08:37:28;;;;;;;15.00;9.35;;;230.60;2099.20;;;;;;5064848;28;20025;-65
2021/04/14 08:40:04;;;;;;;11.70;8.80;;;230.60;2099.20;;;;;;5058614;28;20480;-66
2021/04/14 08:42:34;;;;;;;9.13;6.55;;;230.60;2048.00;;;;;;5058229;28;20032;-70
2021/04/14 08:45:34;;;;;;;10.68;7.38;;;230.70;2048.00;;;;;;5056797;28;20024;-65
2021/04/14 08:48:05;;;;;;;4.70;3.10;;;230.70;2073.60;;;;;;5026281;28;20033;-65
2021/04/14 08:50:35;;;;;;;4.38;3.00;;;230.70;2048.00;;;;;;5070234;28;20404;-65
2021/04/14 08:53:06;;;;;;;3.85;2.63;;;231.00;1971.20;;;;;;5070956;28;20096;-68
2021/04/14 08:55:32;;;;;;;4.43;2.47;;;231.00;1894.40;;;;;;5070527;28;20053;-66
2021/04/14 08:57:59;;;;;;;3.08;1.98;;;231.20;1996.80;;;;;;5070958;28;20048;-65
2021/04/14 09:00:26;;;;;;;4.15;2.60;;;231.20;1945.60;;;;;;5070472;28;20473;-66
2021/04/14 09:02:58;;;;;;;3.20;2.08;;;231.10;1996.80;;;;;;5070830;28;20047;-66
2021/04/14 09:05:25;;;;;;;3.83;2.50;;;230.90;1996.80;;;;;;5059819;28;20025;-65
2021/04/14 09:07:52;;;;;;;3.90;2.60;;;230.80;1945.60;;;;;;5051446;28;20428;-65
2021/04/14 09:10:28;;;;;;;4.30;2.92;;;230.60;1971.20;;;;;;5050624;28;20025;-65
2021/04/14 09:12:55;;;;;;;4.40;2.92;;;230.60;1971.20;;;;;;5068269;28;20020;-65
2021/04/14 09:15:22;;;;;;;3.90;2.78;;;230.50;2022.40;;;;;;5071099;28;20032;-65
2021/04/14 09:18:03;;;;;;;4.07;2.60;;;230.40;2022.40;;;;;;5070628;28;20020;-66
2021/04/14 09:20:35;;;;;;;7.07;4.75;;;205.70;2022.40;;;;;;5070431;28;20040;-66
2021/04/14 09:23:05;;;;;;;5.70;3.70;;;205.70;2022.40;;;;;;5062412;28;20032;-66
2021/04/14 09:25:32;;;;;;;4.55;2.80;;;205.70;2048.00;;;;;;5074479;28;20389;-67
2021/04/14 09:28:02;;;;;;;3.90;2.60;;;205.70;2048.00;;;;;;5074465;28;20020;-66
2021/04/14 09:30:31;;;;;;;4.47;3.13;;;205.70;2048.00;;;;;;5073961;28;20073;-65
2021/04/14 09:33:16;;;;;;;4.13;2.70;;;230.40;2048.00;;;;;;5074779;28;20024;-66
2021/04/14 09:35:59;;;;;;;4.03;2.80;;;230.50;1996.80;;;;;;5073678;28;20016;-65
2021/04/14 09:38:53;;;;;;;5.10;3.75;;;230.50;2022.40;;;;;;5066373;28;20027;-66
2021/04/14 09:41:25;;;;;;;5.78;4.60;;;230.50;2022.40;;;;;;5072361;28;20500;-66
2021/04/14 09:44:10;;;;;;;6.85;4.00;;;230.60;1996.80;;;;;;5074343;28;20112;-67
2021/04/14 09:46:53;;;;;;;5.05;3.83;;;230.80;1996.80;;;;;;5060237;28;20111;-66
2021/04/14 09:49:38;;;;;;;4.78;3.60;;;231.00;1920.00;;;;;;5071707;28;20029;-66
2021/04/14 09:52:18;;;;;;;4.57;3.25;;;256.10;1843.20;;;;;;5074098;28;20086;-66
2021/04/14 09:54:45;;;;;;;;;;;256.50;1817.60;;;;;;5074025;28;20020;-67
2021/04/14 09:57:17;;;;;;;3.78;2.42;;;256.50;1792.00;;;;;;5074556;28;20477;-66
2021/04/14 09:59:44;;;;;;;3.97;2.60;;;256.50;1792.00;;;;;;5073620;28;20036;-66
2021/04/14 10:02:18;;;;;;;3.60;2.20;;;256.70;1792.00;;;;;;5074127;28;20048;-67
2021/04/14 10:04:48;;;;;;;4.15;3.20;;;256.50;1766.40;;;;;;5084993;28;20016;-65
2021/04/14 10:07:27;;;;;;;3.90;2.50;;;256.30;1868.80;;;;;;5073397;28;20048;-64
2021/04/14 10:10:08;;;;;;;4.80;3.28;;;231.30;1817.60;;;;;;5073396;28;20473;-64
2021/04/14 10:12:33;;;;;;;4.03;3.05;;;231.10;1894.40;;;;;;5073574;28;20033;-65
2021/04/14 10:15:01;;;;;;;5.45;3.10;;;231.00;1894.40;;;;;;5073736;28;20032;-65
2021/04/14 10:17:29;;;;;;;9.85;5.80;;;230.90;1996.80;;;;;;5074056;28;20020;-65
2021/04/14 10:20:06;;;;;;;12.02;10.10;;;230.90;1971.20;;;;;;5073564;28;20393;-66
2021/04/14 10:22:38;;;;;;;9.55;5.70;;;230.80;1996.80;;;;;;5073422;28;20028;-65
2021/04/14 10:25:15;;;;;;;5.57;4.63;;;231.00;2048.00;;;;;;5077872;28;20093;-66
2021/04/14 10:27:41;;;;;;;4.43;2.97;;;231.10;2022.40;;;;;;5076649;28;20027;-70
2021/04/14 10:30:15;;;;;;;4.43;3.20;;;231.20;1945.60;;;;;;5073183;28;20020;-67
2021/04/14 10:32:41;;;;;;;5.65;3.83;;;256.10;1945.60;;;;;;5064906;28;20029;-65
2021/04/14 10:35:19;;;;;;;6.05;3.97;;;256.60;1920.00;;;;;;5072581;28;20366;-66
2021/04/14 10:37:55;;;;;;;10.07;6.57;;;281.60;1766.40;;;;;;5073255;28;20432;-66
2021/04/14 10:40:45;;;;;;;5.13;3.50;;;282.30;1792.00;;;;;;5073048;28;20025;-65
2021/04/14 10:43:20;;;;;;;3.78;2.90;;;282.50;1766.40;;;;;;5073155;28;20473;-65
2021/04/14 10:46:05;;;;;;;4.10;3.20;;;282.40;1715.20;;;;;;5073254;28;20031;-65
2021/04/14 10:48:39;;;;;;;4.13;3.03;;;282.30;1740.80;;;;;;5070139;28;20024;-66
2021/04/14 10:51:22;;;;;;;3.70;2.47;;;282.00;1740.80;;;;;;5073055;28;20052;-66
2021/04/14 10:53:54;;;;;;;4.13;2.70;;;281.90;1715.20;;;;;;5069521;28;20431;-65
2021/04/14 10:56:26;;;;;;;3.72;2.50;;;281.90;1740.80;;;;;;5072964;28;20109;-65
2021/04/14 10:58:52;;;;;;;3.70;2.50;;;281.80;1740.80;;;;;;5072779;28;20024;-66
2021/04/14 11:01:30;;;;;;;4.13;2.80;;;281.60;1715.20;;;;;;5073039;28;20024;-65
2021/04/14 11:04:24;;;;;;;4.30;3.00;;;256.90;1715.20;;;;;;5070029;28;20481;-65
2021/04/14 11:06:54;;;;;;;7.30;5.00;;;256.90;1740.80;;;;;;5062799;28;20028;-66
2021/04/14 11:09:21;;;;;;;3.80;2.90;;;256.80;1766.40;;;;;;5063226;28;20025;-65
2021/04/14 11:11:47;;;;;;;3.47;2.70;;;256.90;1766.40;;;;;;5072609;28;20028;-65
2021/04/14 11:14:16;;;;;;;4.05;2.80;;;281.60;1817.60;;;;;;5068684;28;20032;-66
2021/04/14 11:16:45;;;;;;;4.13;2.90;;;281.60;1766.40;;;;;;5066236;28;20544;-65
2021/04/14 11:19:22;;;;;;;4.10;2.88;;;256.90;1766.40;;;;;;5072334;28;20035;-66
2021/04/14 11:22:04;;;;;;;5.75;3.85;;;256.70;1740.80;;;;;;5065544;28;20090;-66
2021/04/14 11:24:40;;;;;;;4.65;2.80;;;256.40;1766.40;;;;;;5068061;28;20016;-65
2021/04/14 11:27:24;;;;;;;3.92;2.50;;;256.30;1792.00;;;;;;5069332;28;20396;-65
2021/04/14 11:30:06;;;;;;;3.35;2.42;;;256.40;1792.00;;;;;;5052690;28;20025;-65
2021/04/14 11:32:32;;;;;;;3.97;2.60;;;256.10;1792.00;;;;;;5056371;28;20033;-65
2021/04/14 11:35:07;;;;;;;4.60;3.25;;;231.30;1817.60;;;;;;5069296;28;20082;-65
2021/04/14 11:37:35;;;;;;;4.75;3.40;;;231.20;1868.80;;;;;;5058054;28;20047;-67
2021/04/14 11:40:21;;;;;;;4.00;2.53;;;231.10;1894.40;;;;;;5071588;28;20052;-65
2021/04/14 11:42:54;;;;;;;5.03;2.70;;;231.00;1868.80;;;;;;5059693;28;20036;-68
2021/04/14 11:45:40;;;;;;;4.00;2.80;;;231.00;1868.80;;;;;;5071309;28;20052;-69
2021/04/14 11:48:14;;;;;;;3.53;2.72;;;231.00;1920.00;;;;;;5062445;28;20024;-64
2021/04/14 11:50:46;;;;;;;4.10;2.50;;;231.00;1868.80;;;;;;5071449;28;20123;-64
2021/04/14 11:53:20;;;;;;;3.35;2.67;;;231.00;1894.40;;;;;;5071800;28;20028;-65
2021/04/14 11:55:47;;;;;;;3.38;2.40;;;230.90;1894.40;;;;;;5072031;28;20028;-65
2021/04/14 11:58:31;;;;;;;4.45;3.00;;;230.90;1945.60;;;;;;5070913;28;20025;-70
2021/04/14 12:00:57;;;;;;;3.85;2.83;;;230.80;1945.60;;;;;;5070660;28;20024;-65
2021/04/14 12:03:30;;;;;;;5.00;3.45;;;230.90;1945.60;;;;;;5072126;28;20023;-70
2021/04/14 12:05:58;;;;;;;3.60;2.50;;;230.90;1920.00;;;;;;5071259;28;20023;-64
2021/04/14 12:08:25;;;;;;;5.18;3.03;;;230.90;1945.60;;;;;;5071551;28;20341;-71
2021/04/14 12:10:52;;;;;;;4.68;2.58;;;230.90;1971.20;;;;;;5070608;28;20115;-67
2021/04/14 12:13:19;;;;;;;3.65;2.58;;;230.90;1996.80;;;;;;5072325;28;20031;-63
2021/04/14 12:15:45;;;;;;;5.88;2.80;;;230.80;2048.00;;;;;;5071234;28;20412;-64
2021/04/14 12:18:11;;;;;;;5.75;3.00;;;230.60;2048.00;;;;;;5055581;28;20025;-65
2021/04/14 12:20:36;;;;;;;5.50;2.70;;;230.50;2048.00;;;;;;5055060;28;20021;-65
2021/04/14 12:23:02;;;;;;;4.93;2.63;;;230.40;2048.00;;;;;;5065526;28;20480;-64
2021/04/14 12:25:28;;;;;;;4.32;2.90;;;230.50;2048.00;;;;;;5056183;28;20428;-64
2021/04/14 12:27:54;;;;;;;3.90;2.45;;;230.70;2048.00;;;;;;5069877;28;20073;-65
2021/04/14 12:30:24;;;;;;;3.85;2.60;;;230.70;2022.40;;;;;;5070809;28;20020;-65
2021/04/14 12:32:50;;;;;;;4.90;2.85;;;230.60;2022.40;;;;;;5060015;28;20048;-65
2021/04/14 12:35:16;;;;;;;6.22;4.50;;;230.60;2048.00;;;;;;5067627;28;20077;-64
2021/04/14 12:37:42;;;;;;;5.13;3.30;;;230.60;2048.00;;;;;;5065973;28;20028;-65
2021/04/14 12:40:09;;;;;;;3.83;3.13;;;230.60;2022.40;;;;;;5069881;28;20035;-69